Time;durP1;ratioP1;P1;durP2;ratioP2;P2;SDS_P1;SDS_P2;PMS_P1;PMS_P2;Temp;Humidity;BMP_temperature;BMP_pressure;BME280_temperature;BME280_humidity;BME280_pressure;Samples;Min_cycle;Max_cycle;Signal;HPM_P1;HPM_P2
2021/10/27 00:01:18;;;;;;;5.87;2.80;;;12.60;99.90;;;;;;5103216;28;20282;-72
2021/10/27 00:03:45;;;;;;;5.77;2.93;;;12.60;99.90;;;;;;5105784;28;20579;-72
2021/10/27 00:06:12;;;;;;;7.27;2.87;;;12.60;99.90;;;;;;5098973;28;20201;-73
2021/10/27 00:08:39;;;;;;;4.80;2.80;;;12.60;99.90;;;;;;5106716;27;20648;-73
2021/10/27 00:11:07;;;;;;;6.60;3.47;;;12.60;99.90;;;;;;5104758;28;20204;-72
2021/10/27 00:13:35;;;;;;;7.37;3.37;;;12.60;99.90;;;;;;5105504;27;20197;-72
2021/10/27 00:16:02;;;;;;;4.23;2.83;;;12.60;99.90;;;;;;5104686;28;20677;-72
2021/10/27 00:18:30;;;;;;;7.03;3.10;;;12.60;99.90;;;;;;5100067;28;20208;-72
2021/10/27 00:20:57;;;;;;;7.80;3.70;;;12.60;99.90;;;;;;5106808;28;20239;-72
2021/10/27 00:23:23;;;;;;;6.10;3.00;;;12.70;99.90;;;;;;5099741;28;20659;-72
2021/10/27 00:25:50;;;;;;;6.93;2.90;;;12.70;99.90;;;;;;5103431;28;20205;-72
2021/10/27 00:28:17;;;;;;;8.50;2.80;;;12.60;99.90;;;;;;5103633;28;20565;-73
2021/10/27 00:30:45;;;;;;;5.50;2.83;;;12.60;99.90;;;;;;5102850;28;20202;-72
2021/10/27 00:33:12;;;;;;;6.30;2.90;;;12.60;99.90;;;;;;5102383;28;20201;-72
2021/10/27 00:35:39;;;;;;;6.50;2.60;;;12.70;99.90;;;;;;5097071;28;20229;-73
2021/10/27 00:38:06;;;;;;;5.30;2.57;;;12.60;99.90;;;;;;5116066;27;20241;-72
2021/10/27 00:40:33;;;;;;;4.00;2.60;;;12.60;99.90;;;;;;5122006;27;20204;-72
2021/10/27 00:42:59;;;;;;;6.07;3.00;;;12.70;99.90;;;;;;5119749;27;20193;-72
2021/10/27 00:45:27;;;;;;;5.83;3.40;;;12.60;99.90;;;;;;5114038;28;20192;-72
2021/10/27 00:47:55;;;;;;;6.57;3.10;;;12.60;99.90;;;;;;5113302;28;20197;-72
2021/10/27 00:50:22;;;;;;;6.10;3.07;;;12.70;99.90;;;;;;5117832;27;20204;-73
2021/10/27 00:52:49;;;;;;;8.47;3.30;;;12.70;99.90;;;;;;5115891;27;20208;-72
2021/10/27 00:55:16;;;;;;;4.93;2.70;;;12.60;99.90;;;;;;5110136;27;20665;-73
2021/10/27 00:57:44;;;;;;;6.13;2.90;;;12.60;99.90;;;;;;5115254;27;20561;-73
2021/10/27 01:00:12;;;;;;;5.77;2.80;;;12.60;99.90;;;;;;5115133;27;20201;-73
2021/10/27 01:02:40;;;;;;;4.83;2.80;;;12.60;99.90;;;;;;5115218;28;20565;-72
2021/10/27 01:05:09;;;;;;;7.77;3.00;;;12.60;99.90;;;;;;5124282;27;20238;-72
2021/10/27 01:07:36;;;;;;;6.40;3.03;;;12.60;99.90;;;;;;5118428;27;20202;-72
2021/10/27 01:10:04;;;;;;;5.77;3.30;;;12.60;99.90;;;;;;5113737;27;20205;-72
2021/10/27 01:12:31;;;;;;;8.40;3.40;;;12.60;99.90;;;;;;5114894;28;20212;-72
2021/10/27 01:14:58;;;;;;;7.10;3.27;;;12.60;99.90;;;;;;5118349;27;20200;-73
2021/10/27 01:17:25;;;;;;;5.17;3.40;;;12.60;99.90;;;;;;5117930;27;20677;-72
2021/10/27 01:19:56;;;;;;;6.10;3.33;;;12.60;99.90;;;;;;5120016;27;20201;-72
2021/10/27 01:22:24;;;;;;;5.93;3.43;;;12.60;99.90;;;;;;5114415;28;20291;-72
2021/10/27 01:24:53;;;;;;;6.83;3.50;;;12.60;99.90;;;;;;5121490;27;20193;-73
2021/10/27 01:27:20;;;;;;;7.57;3.80;;;12.60;99.90;;;;;;5114267;28;20315;-73
2021/10/27 01:29:47;;;;;;;7.13;4.13;;;12.60;99.90;;;;;;5115435;27;20193;-73
2021/10/27 01:32:23;;;;;;;7.07;3.37;;;12.60;99.90;;;;;;5117724;27;20215;-72
2021/10/27 01:34:50;;;;;;;7.97;3.80;;;12.60;99.90;;;;;;5115093;27;20215;-72
2021/10/27 01:37:19;;;;;;;6.10;3.20;;;12.60;99.90;;;;;;5113886;28;20197;-73
2021/10/27 01:39:47;;;;;;;6.27;3.80;;;12.60;99.90;;;;;;5114281;27;20238;-73
2021/10/27 01:42:14;;;;;;;7.90;3.63;;;12.60;99.90;;;;;;5115005;28;20543;-72
2021/10/27 01:44:41;;;;;;;6.53;4.13;;;12.60;99.90;;;;;;5115451;27;20212;-72
2021/10/27 01:47:08;;;;;;;7.30;3.77;;;12.60;99.90;;;;;;5114631;28;20207;-72
2021/10/27 01:49:35;;;;;;;6.70;3.57;;;12.60;99.90;;;;;;5113572;28;20584;-72
2021/10/27 01:52:03;;;;;;;6.03;3.60;;;12.60;99.90;;;;;;5120560;27;20208;-72
2021/10/27 01:54:31;;;;;;;7.63;4.30;;;12.50;99.90;;;;;;5119245;27;20208;-73
2021/10/27 01:56:58;;;;;;;4.83;3.43;;;12.50;99.90;;;;;;5114182;28;20679;-73
2021/10/27 01:59:25;;;;;;;7.77;4.27;;;12.60;99.90;;;;;;5104955;27;20208;-72
2021/10/27 02:01:52;;;;;;;8.97;4.20;;;12.50;99.90;;;;;;5108159;27;20198;-73
2021/10/27 02:04:20;;;;;;;8.00;3.80;;;12.50;99.90;;;;;;5121004;27;20204;-72
2021/10/27 02:06:47;;;;;;;7.50;4.20;;;12.50;99.90;;;;;;5113020;27;20674;-72
2021/10/27 02:09:14;;;;;;;9.30;4.90;;;12.50;99.90;;;;;;5113075;27;20205;-72
2021/10/27 02:11:43;;;;;;;9.00;4.63;;;12.50;99.90;;;;;;5111080;27;20211;-73
2021/10/27 02:14:10;;;;;;;12.10;4.97;;;12.50;99.90;;;;;;5119048;27;20274;-72
2021/10/27 02:16:37;;;;;;;9.33;4.60;;;12.50;99.90;;;;;;5113634;27;20221;-72
2021/10/27 02:19:06;;;;;;;8.97;4.70;;;12.40;99.90;;;;;;5110260;27;20322;-73
2021/10/27 02:21:33;;;;;;;9.23;5.07;;;12.40;99.90;;;;;;5101143;27;20221;-72
2021/10/27 02:24:00;;;;;;;9.03;5.13;;;12.40;99.90;;;;;;5111841;27;20204;-73
2021/10/27 02:26:26;;;;;;;10.90;5.47;;;12.40;99.90;;;;;;5103517;27;20198;-72
2021/10/27 02:28:55;;;;;;;11.63;5.93;;;12.40;99.90;;;;;;5096960;27;20214;-73
2021/10/27 02:31:22;;;;;;;9.17;5.60;;;12.50;99.90;;;;;;5109770;27;20212;-72
2021/10/27 02:33:49;;;;;;;10.17;6.57;;;12.50;99.90;;;;;;5114291;27;20200;-73
2021/10/27 02:36:16;;;;;;;9.47;5.37;;;12.40;99.90;;;;;;5116559;27;20243;-73
2021/10/27 02:38:43;;;;;;;11.87;6.17;;;12.50;99.90;;;;;;5112493;27;20718;-72
2021/10/27 02:41:12;;;;;;;8.50;6.17;;;12.50;99.90;;;;;;5113118;28;20558;-72
2021/10/27 02:43:39;;;;;;;9.67;6.00;;;12.50;99.90;;;;;;5115114;27;20235;-72
2021/10/27 02:46:08;;;;;;;12.90;6.77;;;12.40;99.90;;;;;;5112640;28;20197;-72
2021/10/27 02:48:34;;;;;;;11.33;6.17;;;12.40;99.90;;;;;;5119900;27;20197;-72
2021/10/27 02:51:01;;;;;;;13.83;6.40;;;12.40;99.90;;;;;;5113288;28;20203;-72
2021/10/27 02:53:28;;;;;;;8.17;5.87;;;12.30;99.90;;;;;;5111971;28;20677;-72
2021/10/27 02:55:55;;;;;;;12.13;7.37;;;12.30;99.90;;;;;;5115173;27;20459;-72
2021/10/27 02:58:22;;;;;;;12.77;6.43;;;12.20;99.90;;;;;;5110264;28;20570;-72
2021/10/27 03:00:49;;;;;;;14.73;7.47;;;12.30;99.90;;;;;;5111489;28;20211;-73
2021/10/27 03:03:17;;;;;;;13.90;7.07;;;12.30;99.90;;;;;;5123543;27;20564;-72
2021/10/27 03:05:44;;;;;;;13.50;7.00;;;12.30;99.90;;;;;;5115447;27;20200;-73
2021/10/27 03:08:11;;;;;;;14.43;7.60;;;12.40;99.90;;;;;;5122753;27;20649;-73
2021/10/27 03:10:38;;;;;;;12.77;7.53;;;12.40;99.90;;;;;;5111401;28;20197;-73
2021/10/27 03:13:05;;;;;;;12.03;7.53;;;12.40;99.90;;;;;;5123342;27;20206;-72
2021/10/27 03:15:32;;;;;;;11.47;7.30;;;12.40;99.90;;;;;;5112142;27;20201;-72
2021/10/27 03:17:59;;;;;;;11.73;7.13;;;12.50;99.90;;;;;;5121287;27;20707;-72
2021/10/27 03:20:27;;;;;;;13.40;7.40;;;12.40;99.90;;;;;;5118060;27;20686;-72
2021/10/27 03:22:54;;;;;;;17.67;7.43;;;12.50;99.90;;;;;;5119636;27;20545;-72
2021/10/27 03:25:21;;;;;;;14.47;7.23;;;12.50;99.90;;;;;;5112376;28;20642;-72
2021/10/27 03:27:48;;;;;;;13.93;7.63;;;12.50;99.90;;;;;;5123185;27;20193;-72
2021/10/27 03:30:15;;;;;;;12.30;7.53;;;12.50;99.90;;;;;;5112437;27;20711;-72
2021/10/27 03:32:42;;;;;;;14.27;7.93;;;12.50;99.90;;;;;;5119266;27;20211;-72
2021/10/27 03:35:10;;;;;;;11.67;7.23;;;12.50;99.90;;;;;;5113118;28;20654;-73
2021/10/27 03:37:38;;;;;;;11.43;6.93;;;12.50;99.90;;;;;;5114723;27;20541;-72
2021/10/27 03:40:06;;;;;;;16.90;9.07;;;12.50;99.90;;;;;;5116096;27;20203;-72
2021/10/27 03:42:33;;;;;;;12.80;7.40;;;12.50;99.90;;;;;;5114997;27;20584;-72
2021/10/27 03:45:00;;;;;;;14.73;7.37;;;12.50;99.90;;;;;;5123102;27;20203;-72
2021/10/27 03:47:27;;;;;;;9.30;5.83;;;12.50;99.90;;;;;;5113184;28;20295;-72
2021/10/27 03:49:54;;;;;;;10.57;6.00;;;12.50;99.90;;;;;;5125322;27;20200;-72
2021/10/27 03:52:21;;;;;;;12.30;6.37;;;12.50;99.90;;;;;;5112039;28;20630;-72
2021/10/27 03:54:49;;;;;;;10.00;6.13;;;12.50;99.90;;;;;;5115781;27;20647;-72
2021/10/27 03:57:16;;;;;;;13.47;6.80;;;12.50;99.90;;;;;;5113953;27;20310;-72
2021/10/27 03:59:43;;;;;;;11.47;6.33;;;12.50;99.90;;;;;;5120011;27;20200;-72
2021/10/27 04:02:10;;;;;;;10.77;5.83;;;12.50;99.90;;;;;;5104464;28;20213;-72
2021/10/27 04:04:37;;;;;;;7.77;5.50;;;12.50;99.90;;;;;;5111993;28;20204;-72
2021/10/27 04:07:04;;;;;;;8.30;5.47;;;12.50;99.90;;;;;;5108999;27;20555;-72
2021/10/27 04:09:31;;;;;;;12.23;5.07;;;12.40;99.90;;;;;;5111249;28;20211;-73
2021/10/27 04:11:59;;;;;;;10.00;5.47;;;12.40;99.90;;;;;;5111513;28;20681;-72
2021/10/27 04:14:26;;;;;;;9.47;5.50;;;12.40;99.90;;;;;;5098947;28;20220;-72
2021/10/27 04:16:53;;;;;;;7.20;5.13;;;12.40;99.90;;;;;;5118809;27;20217;-73
2021/10/27 04:19:20;;;;;;;10.70;5.07;;;12.40;99.90;;;;;;5116121;28;20573;-73
2021/10/27 04:21:47;;;;;;;8.83;4.60;;;12.40;99.90;;;;;;5112616;28;20570;-73
2021/10/27 04:24:14;;;;;;;9.93;5.20;;;12.40;99.90;;;;;;5111358;28;20203;-72
2021/10/27 04:26:40;;;;;;;7.93;4.83;;;12.40;99.90;;;;;;5096254;27;20648;-72
2021/10/27 04:29:09;;;;;;;7.93;5.13;;;12.40;99.90;;;;;;5105121;28;20203;-72
2021/10/27 04:31:36;;;;;;;6.27;4.37;;;12.40;99.90;;;;;;5113191;28;20659;-73
2021/10/27 04:34:03;;;;;;;7.60;4.37;;;12.40;99.90;;;;;;5112126;28;20200;-73
2021/10/27 04:36:31;;;;;;;8.53;4.70;;;12.30;99.90;;;;;;5121294;28;20205;-72
2021/10/27 04:38:58;;;;;;;6.30;4.23;;;12.30;99.90;;;;;;5112128;28;20200;-72
2021/10/27 04:41:25;;;;;;;6.40;3.87;;;12.30;99.90;;;;;;5114890;28;20201;-73
2021/10/27 04:43:52;;;;;;;8.40;4.03;;;12.30;99.90;;;;;;5112033;28;20207;-72
2021/10/27 04:46:20;;;;;;;5.83;4.10;;;12.30;99.90;;;;;;5114865;28;20189;-73
2021/10/27 04:48:47;;;;;;;9.23;4.40;;;12.30;99.90;;;;;;5104437;28;20252;-72
2021/10/27 04:51:14;;;;;;;9.33;4.00;;;12.30;99.90;;;;;;5111623;28;20204;-72
2021/10/27 04:53:40;;;;;;;7.60;3.57;;;12.30;99.90;;;;;;5111662;28;20643;-72
2021/10/27 04:56:07;;;;;;;7.47;4.40;;;12.40;99.90;;;;;;5114911;28;20197;-72
2021/10/27 04:58:34;;;;;;;10.17;4.40;;;12.40;99.90;;;;;;5109862;28;20205;-72
2021/10/27 05:01:01;;;;;;;6.07;4.30;;;12.40;99.90;;;;;;5110320;28;20197;-73
2021/10/27 05:03:29;;;;;;;8.73;4.50;;;12.40;99.90;;;;;;5110704;28;20208;-72
2021/10/27 05:05:56;;;;;;;6.60;3.77;;;12.40;99.90;;;;;;5112862;28;20223;-72
2021/10/27 05:08:24;;;;;;;7.83;4.00;;;12.40;99.90;;;;;;5110853;28;20201;-72
2021/10/27 05:10:51;;;;;;;4.33;3.37;;;12.40;99.90;;;;;;5121946;28;20254;-73
2021/10/27 05:13:19;;;;;;;7.00;3.47;;;12.40;99.90;;;;;;5121692;28;21724;-72
2021/10/27 05:15:47;;;;;;;7.97;3.53;;;12.40;99.90;;;;;;5112469;28;20235;-72
2021/10/27 05:18:14;;;;;;;7.50;4.00;;;12.40;99.90;;;;;;5116460;28;20682;-72
2021/10/27 05:20:43;;;;;;;6.60;3.97;;;12.40;99.90;;;;;;5114387;28;20203;-72
2021/10/27 05:23:10;;;;;;;6.57;3.80;;;12.40;99.90;;;;;;5111287;28;20219;-73
2021/10/27 05:25:37;;;;;;;9.17;3.87;;;12.40;99.90;;;;;;5115687;27;20670;-73
2021/10/27 05:28:04;;;;;;;6.47;3.70;;;12.40;99.90;;;;;;5101486;27;20371;-72
2021/10/27 05:30:31;;;;;;;6.03;3.60;;;12.40;99.90;;;;;;5114121;28;20201;-72
2021/10/27 05:32:58;;;;;;;7.17;3.50;;;12.40;99.90;;;;;;5116804;27;20547;-72
2021/10/27 05:35:26;;;;;;;8.17;4.00;;;12.40;99.90;;;;;;5116185;27;20665;-73
2021/10/27 05:37:55;;;;;;;6.50;3.30;;;12.40;99.90;;;;;;5113986;28;20224;-72
2021/10/27 05:40:23;;;;;;;5.70;3.40;;;12.40;99.90;;;;;;5114779;28;20532;-73
2021/10/27 05:42:51;;;;;;;8.83;3.40;;;12.40;99.90;;;;;;5114557;28;20208;-72
2021/10/27 05:45:19;;;;;;;6.53;3.93;;;12.40;99.90;;;;;;5114302;27;20204;-72
2021/10/27 05:47:49;;;;;;;6.43;3.50;;;12.40;99.90;;;;;;5115146;28;20679;-72
2021/10/27 05:50:29;;;;;;;6.70;3.40;;;12.40;99.90;;;;;;5114250;28;20236;-72
2021/10/27 05:55:42;;;;;;;8.20;3.67;;;12.40;99.90;;;;;;5104894;28;20247;-72
2021/10/27 05:58:10;;;;;;;5.67;3.70;;;12.40;99.90;;;;;;5114844;28;20221;-73
2021/10/27 06:00:39;;;;;;;6.27;3.60;;;12.50;99.90;;;;;;5118750;27;20239;-72
2021/10/27 06:03:06;;;;;;;9.67;3.83;;;12.50;99.90;;;;;;5114887;28;20205;-73
2021/10/27 06:05:33;;;;;;;7.07;3.60;;;12.50;99.90;;;;;;5114263;28;20204;-73
2021/10/27 06:08:01;;;;;;;9.07;4.00;;;12.50;99.90;;;;;;5114602;28;20197;-72
2021/10/27 06:10:28;;;;;;;6.90;4.13;;;12.40;99.90;;;;;;5121291;27;20292;-72
2021/10/27 06:13:00;;;;;;;5.67;3.60;;;12.40;99.90;;;;;;5114470;28;20615;-72
2021/10/27 06:15:27;;;;;;;8.50;4.10;;;12.40;99.90;;;;;;5113563;28;20204;-72
2021/10/27 06:17:54;;;;;;;7.83;4.60;;;12.50;99.90;;;;;;5113810;28;20706;-72
2021/10/27 06:20:21;;;;;;;9.37;4.67;;;12.50;99.90;;;;;;5114303;28;20196;-73
2021/10/27 06:22:48;;;;;;;8.23;5.03;;;12.50;99.90;;;;;;5112030;28;20236;-72
2021/10/27 06:25:17;;;;;;;8.17;4.83;;;12.50;99.90;;;;;;5122769;27;20206;-73
2021/10/27 06:27:46;;;;;;;10.07;4.20;;;12.50;99.90;;;;;;5104732;27;20197;-72
2021/10/27 06:30:16;;;;;;;8.07;4.67;;;12.50;99.90;;;;;;5113176;28;20197;-72
2021/10/27 06:32:50;;;;;;;7.00;4.50;;;12.50;99.90;;;;;;5114218;27;20323;-68
2021/10/27 06:35:20;;;;;;;7.73;4.67;;;12.60;99.90;;;;;;5113341;28;20193;-68
2021/10/27 06:38:16;;;;;;;8.17;5.03;;;12.50;99.90;;;;;;5113842;28;20225;-68
2021/10/27 06:46:35;;;;;;;7.27;4.90;;;12.50;99.90;;;;;;5112731;28;20232;-69
2021/10/27 06:49:02;;;;;;;8.83;4.40;;;12.50;99.90;;;;;;5117668;27;20189;-69
2021/10/27 06:51:29;;;;;;;8.00;4.70;;;12.50;99.90;;;;;;5113409;28;20223;-70
2021/10/27 06:53:56;;;;;;;6.83;4.37;;;12.50;99.90;;;;;;5112861;28;20684;-69
2021/10/27 06:56:24;;;;;;;7.70;4.63;;;12.50;99.90;;;;;;5118570;27;20646;-69
2021/10/27 06:58:56;;;;;;;11.60;4.70;;;12.50;99.90;;;;;;5112696;28;20215;-69
2021/10/27 07:01:27;;;;;;;6.53;4.27;;;12.50;99.90;;;;;;5112804;28;20243;-69
2021/10/27 07:17:50;;;;;;;5.70;4.23;;;12.50;99.90;;;;;;5109271;28;20307;-69
2021/10/27 07:20:17;;;;;;;8.77;4.40;;;12.50;99.90;;;;;;5112783;28;20254;-70
2021/10/27 07:22:45;;;;;;;6.57;4.10;;;12.50;99.90;;;;;;5112191;28;20677;-69
2021/10/27 07:25:12;;;;;;;5.13;4.07;;;12.50;99.90;;;;;;5115554;27;20677;-70
2021/10/27 07:27:40;;;;;;;6.57;3.93;;;12.50;99.90;;;;;;5112711;27;20197;-70
2021/10/27 07:30:08;;;;;;;6.47;4.40;;;12.60;99.90;;;;;;5115601;27;20758;-70
2021/10/27 07:32:35;;;;;;;6.13;4.13;;;12.60;99.90;;;;;;5113378;27;20594;-71
2021/10/27 07:35:14;;;;;;;6.50;4.20;;;12.60;99.90;;;;;;5120816;27;20607;-69
2021/10/27 07:40:34;;;;;;;5.90;3.73;;;12.70;99.90;;;;;;5114987;27;20204;-70
2021/10/27 07:43:07;;;;;;;7.23;4.40;;;12.80;99.90;;;;;;5112441;28;20280;-69
2021/10/27 07:45:35;;;;;;;6.30;3.80;;;12.80;99.90;;;;;;5113248;27;20209;-69
2021/10/27 07:48:02;;;;;;;7.27;4.30;;;12.80;99.90;;;;;;5111362;28;20574;-69
2021/10/27 07:50:31;;;;;;;5.50;4.00;;;12.80;99.90;;;;;;5111206;28;20216;-69
2021/10/27 07:52:59;;;;;;;5.40;3.93;;;12.80;99.90;;;;;;5110387;28;20205;-70
2021/10/27 07:55:27;;;;;;;6.27;3.97;;;12.90;99.90;;;;;;5111718;28;20196;-70
2021/10/27 07:57:54;;;;;;;6.07;4.13;;;12.90;99.90;;;;;;5111740;28;20304;-70
2021/10/27 08:00:24;;;;;;;7.03;4.10;;;13.00;99.90;;;;;;5122072;27;20204;-69
2021/10/27 08:02:51;;;;;;;5.53;4.20;;;13.00;99.90;;;;;;5107236;27;20208;-69
2021/10/27 08:05:20;;;;;;;7.73;4.00;;;13.00;99.90;;;;;;5117925;27;20286;-69
2021/10/27 08:07:49;;;;;;;8.07;4.43;;;13.10;99.90;;;;;;5111728;28;20208;-69
2021/10/27 08:10:18;;;;;;;7.40;4.50;;;13.10;99.90;;;;;;5111524;28;20204;-69
2021/10/27 08:12:46;;;;;;;7.60;4.37;;;13.20;99.90;;;;;;5112122;28;20209;-69
2021/10/27 08:15:14;;;;;;;8.83;4.67;;;13.30;99.90;;;;;;5111032;28;20211;-69
2021/10/27 08:17:42;;;;;;;10.83;4.80;;;13.30;99.90;;;;;;5111977;28;20260;-69
2021/10/27 08:20:12;;;;;;;8.13;4.67;;;13.40;99.90;;;;;;5118058;28;20515;-69
2021/10/27 08:22:42;;;;;;;5.97;4.23;;;13.50;99.90;;;;;;5114945;27;20601;-69
2021/10/27 08:25:18;;;;;;;9.27;4.60;;;13.50;99.90;;;;;;5110656;28;20650;-69
2021/10/27 08:27:44;;;;;;;7.50;4.60;;;13.50;99.90;;;;;;5103498;28;20208;-69
2021/10/27 08:30:13;;;;;;;7.67;5.17;;;13.50;99.90;;;;;;5111376;28;20288;-69
2021/10/27 08:32:45;;;;;;;8.43;4.43;;;13.60;99.90;;;;;;5101461;28;20679;-69
2021/10/27 08:35:14;;;;;;;7.67;5.30;;;13.70;99.90;;;;;;5110782;28;20246;-68
2021/10/27 08:37:43;;;;;;;9.23;4.97;;;13.70;99.90;;;;;;5106435;28;20224;-68
2021/10/27 08:40:11;;;;;;;7.07;4.70;;;13.80;99.90;;;;;;5106450;28;20204;-68
2021/10/27 08:42:41;;;;;;;8.43;5.03;;;13.90;99.90;;;;;;5106419;28;20215;-68
2021/10/27 08:45:09;;;;;;;6.93;4.80;;;13.90;99.90;;;;;;5107383;28;20217;-68
2021/10/27 08:47:38;;;;;;;8.23;4.53;;;14.00;99.90;;;;;;5107807;28;20824;-68
2021/10/27 08:50:09;;;;;;;5.77;4.27;;;14.00;99.90;;;;;;5104187;28;20238;-68
2021/10/27 08:52:36;;;;;;;5.33;4.50;;;14.10;99.90;;;;;;5106586;28;20673;-68
2021/10/27 08:55:04;;;;;;;6.97;4.43;;;14.10;99.90;;;;;;5109398;28;20621;-68
2021/10/27 08:57:32;;;;;;;10.77;5.17;;;14.10;99.90;;;;;;5107515;28;20232;-68
2021/10/27 09:00:04;;;;;;;6.30;4.20;;;14.10;99.90;;;;;;5108633;27;20224;-68
2021/10/27 09:05:42;;;;;;;7.37;4.27;;;14.20;99.90;;;;;;5115047;27;20225;-68
2021/10/27 09:36:20;;;;;;;5.20;3.40;;;15.00;99.90;;;;;;5104685;28;20548;-68
2021/10/27 09:56:16;;;;;;;4.57;3.20;;;15.30;99.90;;;;;;5114900;27;20223;-68
2021/10/27 10:04:25;;;;;;;6.60;3.10;;;15.40;99.90;;;;;;5108751;27;20494;-70
2021/10/27 10:06:57;;;;;;;6.87;3.33;;;15.40;99.90;;;;;;5105374;28;20212;-69
2021/10/27 10:09:26;;;;;;;3.07;2.70;;;15.50;99.90;;;;;;5107746;27;20216;-70
2021/10/27 10:11:55;;;;;;;4.77;3.10;;;15.60;99.90;;;;;;5098696;28;20298;-70
2021/10/27 10:14:22;;;;;;;4.70;2.93;;;15.60;99.90;;;;;;5092164;28;20236;-69
2021/10/27 10:16:51;;;;;;;4.63;2.47;;;15.70;99.90;;;;;;5110108;28;20289;-69
2021/10/27 10:19:21;;;;;;;8.50;3.10;;;15.80;99.90;;;;;;5109806;27;20235;-70
2021/10/27 10:21:52;;;;;;;8.47;3.17;;;15.80;99.90;;;;;;5113331;27;20265;-70
2021/10/27 10:24:38;;;;;;;3.67;2.83;;;15.70;99.90;;;;;;5108663;28;20248;-69
2021/10/27 10:27:12;;;;;;;5.30;3.03;;;15.90;99.90;;;;;;5109213;28;20205;-70
2021/10/27 10:29:49;;;;;;;3.13;2.70;;;15.80;99.90;;;;;;5108992;28;20321;-70
2021/10/27 10:32:43;;;;;;;4.30;2.50;;;15.70;99.90;;;;;;5110110;28;20659;-70
2021/10/27 10:35:21;;;;;;;4.70;2.50;;;15.70;99.90;;;;;;5105780;28;20300;-70
2021/10/27 10:37:54;;;;;;;7.17;3.00;;;15.70;99.90;;;;;;5107808;27;20303;-70
2021/10/27 11:02:57;;;;;;;7.27;3.37;;;15.50;99.90;;;;;;5098649;28;20209;-70
2021/10/27 11:23:18;;;;;;;8.37;3.43;;;15.40;99.90;;;;;;5102544;28;20402;-70
2021/10/27 11:26:04;;;;;;;5.70;3.00;;;15.40;99.90;;;;;;5107876;27;20215;-70
2021/10/27 11:37:27;;;;;;;6.37;3.13;;;15.40;99.90;;;;;;5108344;27;20226;-69
2021/10/27 11:39:56;;;;;;;4.43;2.70;;;15.40;99.90;;;;;;5108700;28;20690;-70
2021/10/27 11:42:37;;;;;;;3.50;2.20;;;15.40;99.90;;;;;;5109222;28;20262;-69
2021/10/27 11:45:23;;;;;;;3.20;2.00;;;15.50;99.90;;;;;;5108027;28;20209;-70
2021/10/27 11:47:56;;;;;;;5.33;2.13;;;15.60;99.90;;;;;;5100643;28;20712;-69
2021/10/27 11:50:30;;;;;;;3.10;2.17;;;15.50;99.90;;;;;;5106715;28;20209;-70
2021/10/27 11:52:57;;;;;;;5.20;2.27;;;15.50;99.90;;;;;;5102382;28;20619;-70
2021/10/27 11:55:30;;;;;;;3.93;2.40;;;15.50;99.90;;;;;;5110220;27;20726;-70
2021/10/27 11:57:57;;;;;;;4.67;2.50;;;15.60;99.90;;;;;;5109764;27;20629;-70
2021/10/27 12:00:31;;;;;;;5.93;2.40;;;15.50;99.90;;;;;;5108850;27;20247;-70
2021/10/27 12:03:05;;;;;;;4.30;2.37;;;15.60;99.90;;;;;;5107845;27;20256;-70
2021/10/27 12:05:39;;;;;;;4.37;3.10;;;15.60;99.90;;;;;;5106394;28;20245;-70
2021/10/27 12:13:51;;;;;;;4.10;2.70;;;15.70;99.90;;;;;;5096540;28;20197;-70
2021/10/27 12:19:15;;;;;;;6.40;3.10;;;15.80;99.90;;;;;;5075695;28;20220;-70
2021/10/27 12:21:51;;;;;;;6.70;3.00;;;15.90;99.90;;;;;;5108166;28;20209;-70
2021/10/27 12:24:20;;;;;;;5.75;2.60;;;15.90;99.90;;;;;;5107397;28;20211;-70
2021/10/27 12:26:55;;;;;;;6.88;2.80;;;15.90;99.90;;;;;;5110208;28;20295;-70
2021/10/27 12:29:27;;;;;;;3.53;2.67;;;16.00;99.90;;;;;;5105440;28;20240;-70
2021/10/27 12:32:09;;;;;;;3.00;2.17;;;16.10;99.90;;;;;;5108573;28;20240;-69
2021/10/27 12:34:46;;;;;;;4.15;2.50;;;16.20;99.90;;;;;;5111526;28;20215;-70
2021/10/27 12:37:28;;;;;;;4.97;2.50;;;16.20;99.90;;;;;;5112091;28;20721;-70
2021/10/27 12:40:13;;;;;;;3.47;2.20;;;16.20;99.90;;;;;;5110829;28;20213;-69
2021/10/27 12:42:41;;;;;;;3.50;2.00;;;16.20;99.90;;;;;;5110581;27;20216;-70
2021/10/27 12:45:09;;;;;;;4.78;2.13;;;16.20;99.90;;;;;;5115618;27;20667;-70
2021/10/27 12:47:39;;;;;;;5.97;2.70;;;16.30;99.90;;;;;;5112633;27;20300;-70
2021/10/27 12:50:11;;;;;;;4.32;2.30;;;16.40;99.90;;;;;;5108524;28;20208;-70
2021/10/27 12:52:43;;;;;;;5.32;2.58;;;16.50;99.90;;;;;;5111046;27;20227;-69
2021/10/27 12:55:17;;;;;;;3.70;2.38;;;16.50;99.90;;;;;;5118680;27;20213;-69
2021/10/27 12:58:01;;;;;;;4.28;2.13;;;16.40;99.90;;;;;;5114320;27;20586;-70
2021/10/27 13:00:34;;;;;;;4.30;2.13;;;16.60;99.90;;;;;;5115289;27;20254;-70
2021/10/27 13:03:20;;;;;;;2.35;1.85;;;16.90;99.90;;;;;;5109739;27;20602;-70
2021/10/27 13:05:52;;;;;;;6.47;2.40;;;16.60;99.90;;;;;;5109584;27;20209;-70
2021/10/27 13:14:32;;;;;;;2.83;2.38;;;16.40;99.90;;;;;;5165097;27;20564;-69
2021/10/27 13:20:05;;;;;;;5.47;2.47;;;16.70;99.90;;;;;;5143361;27;20243;-70
2021/10/27 13:22:45;;;;;;;6.90;2.17;;;16.70;99.90;;;;;;5127994;27;20239;-70
2021/10/27 13:30:49;;;;;;;3.78;2.25;;;16.90;99.90;;;;;;5143178;27;20234;-70
2021/10/27 13:33:19;;;;;;;4.20;2.08;;;17.00;99.90;;;;;;5145218;27;20216;-70
2021/10/27 13:35:46;;;;;;;3.90;2.30;;;16.90;99.90;;;;;;5140613;27;20208;-70
2021/10/27 13:38:14;;;;;;;9.10;2.38;;;17.00;99.90;;;;;;5143987;27;20641;-70
2021/10/27 13:40:43;;;;;;;5.22;2.70;;;17.00;99.90;;;;;;5145083;27;20211;-70
2021/10/27 13:43:14;;;;;;;4.15;2.00;;;16.90;99.90;;;;;;5146292;27;20215;-69
2021/10/27 13:45:47;;;;;;;6.57;2.33;;;16.70;99.90;;;;;;5146135;27;20200;-70
2021/10/27 13:48:21;;;;;;;6.28;2.30;;;16.80;99.90;;;;;;5120784;27;20282;-69
2021/10/27 13:59:21;;;;;;;2.80;2.15;;;16.30;99.90;;;;;;5143238;27;20210;-69
2021/10/27 14:07:24;;;;;;;2.40;2.00;;;16.20;99.90;;;;;;5145354;27;20210;-70
2021/10/27 14:09:54;;;;;;;4.03;1.87;;;16.10;99.90;;;;;;5143996;27;20636;-70
2021/10/27 14:12:32;;;;;;;5.07;2.50;;;16.10;99.90;;;;;;5141964;27;20255;-70
2021/10/27 14:15:05;;;;;;;3.65;2.28;;;16.10;99.90;;;;;;5139253;27;20299;-70
2021/10/27 14:39:55;;;;;;;3.50;2.53;;;15.90;99.90;;;;;;5127482;27;20676;-70
2021/10/27 14:51:12;;;;;;;3.33;2.53;;;15.70;99.90;;;;;;5124040;27;20461;-69
2021/10/27 15:15:27;;;;;;;4.60;3.87;;;15.60;99.90;;;;;;5127437;27;20571;-72
2021/10/27 15:21:35;;;;;;;5.23;2.57;;;15.10;99.90;;;;;;5128917;27;20250;-72
2021/10/27 15:32:32;;;;;;;5.97;3.10;;;14.90;99.90;;;;;;5129340;27;20213;-70
2021/10/27 15:35:18;;;;;;;5.00;3.00;;;14.90;99.90;;;;;;5126066;27;20212;-70
2021/10/27 15:43:17;;;;;;;5.97;3.17;;;14.80;99.90;;;;;;5119713;27;20204;-70
2021/10/27 15:51:23;;;;;;;5.13;3.47;;;14.80;99.90;;;;;;5074302;27;20200;-70
2021/10/27 15:53:53;;;;;;;4.80;3.20;;;14.80;99.90;;;;;;5127880;27;20319;-70
2021/10/27 15:56:20;;;;;;;3.67;2.97;;;14.80;99.90;;;;;;5121039;27;20239;-70
2021/10/27 15:58:48;;;;;;;4.97;3.00;;;14.70;99.90;;;;;;5119625;27;20245;-70
2021/10/27 16:01:16;;;;;;;5.57;3.13;;;14.70;99.90;;;;;;5126034;27;20209;-70
2021/10/27 16:03:43;;;;;;;6.83;3.40;;;14.60;99.90;;;;;;5123605;27;20201;-70
2021/10/27 16:06:11;;;;;;;3.70;2.87;;;14.60;99.90;;;;;;5123633;27;20209;-70
2021/10/27 16:08:40;;;;;;;6.27;3.20;;;14.60;99.90;;;;;;5127040;27;20319;-70
2021/10/27 16:11:07;;;;;;;5.93;2.73;;;14.60;99.90;;;;;;5125716;27;20203;-70
2021/10/27 16:13:35;;;;;;;4.90;2.77;;;14.60;99.90;;;;;;5119527;27;20269;-70
2021/10/27 16:16:03;;;;;;;6.77;3.10;;;14.50;99.90;;;;;;5124529;27;20563;-70
2021/10/27 16:18:33;;;;;;;4.90;2.67;;;14.50;99.90;;;;;;5125674;27;20216;-70
2021/10/27 16:21:01;;;;;;;4.23;2.50;;;14.50;99.90;;;;;;5119514;27;20735;-70
2021/10/27 16:23:28;;;;;;;3.90;2.60;;;14.50;99.90;;;;;;5126619;27;20247;-70
2021/10/27 16:25:56;;;;;;;4.57;2.67;;;14.40;99.90;;;;;;5123538;27;20200;-70
2021/10/27 16:28:24;;;;;;;4.33;2.77;;;14.30;99.90;;;;;;5120969;27;20200;-70
2021/10/27 16:30:52;;;;;;;3.97;2.53;;;14.30;99.90;;;;;;5124053;27;20209;-70
2021/10/27 16:33:22;;;;;;;3.23;2.33;;;14.30;99.90;;;;;;5126056;27;20277;-70
2021/10/27 16:35:50;;;;;;;6.13;2.30;;;14.30;99.90;;;;;;5116074;27;20483;-70
2021/10/27 16:38:17;;;;;;;5.37;2.20;;;14.30;99.90;;;;;;5122737;27;20212;-70
2021/10/27 16:40:45;;;;;;;2.40;2.20;;;14.30;99.90;;;;;;5122410;27;20250;-69
2021/10/27 16:43:12;;;;;;;4.83;2.30;;;14.20;99.90;;;;;;5125785;27;20654;-69
2021/10/27 16:45:39;;;;;;;3.90;1.93;;;14.20;99.90;;;;;;5121884;27;20208;-69
2021/10/27 16:48:07;;;;;;;4.80;2.03;;;14.30;99.90;;;;;;5121765;27;20224;-70
2021/10/27 16:50:35;;;;;;;3.10;2.23;;;14.10;99.90;;;;;;5123148;27;20208;-68
2021/10/27 16:53:02;;;;;;;4.83;2.33;;;14.10;99.90;;;;;;5127525;27;20273;-68
2021/10/27 16:55:30;;;;;;;4.10;1.90;;;14.00;99.90;;;;;;5121496;27;20627;-69
2021/10/27 16:57:58;;;;;;;3.43;1.97;;;13.90;99.90;;;;;;5125015;27;20243;-68